Time;durP1;ratioP1;P1;durP2;ratioP2;P2;SDS_P1;SDS_P2;PMS_P1;PMS_P2;Temp;Humidity;BMP_temperature;BMP_pressure;BME280_temperature;BME280_humidity;BME280_pressure;Samples;Min_cycle;Max_cycle;Signal;HPM_P1;HPM_P2
2024/01/02 00:00:29;;;;;;;;;;;8.90;99.90;;;;;;2616815;47;19946;-71
2024/01/02 00:02:59;;;;;;;;;;;8.90;99.90;;;;;;2622602;54;20682;-72
2024/01/02 00:05:28;;;;;;;;;;;8.90;99.90;;;;;;2621644;47;19939;-72
2024/01/02 00:07:58;;;;;;;;;;;8.90;99.90;;;;;;2619185;47;19992;-71
2024/01/02 00:10:28;;;;;;;;;;;8.80;99.90;;;;;;2615930;47;19947;-71
2024/01/02 00:12:58;;;;;;;;;;;8.90;99.90;;;;;;2616105;54;19953;-72
2024/01/02 00:15:30;;;;;;;;;;;8.80;99.90;;;;;;2616442;39;20423;-72
2024/01/02 00:18:00;;;;;;;;;;;8.80;99.90;;;;;;2617324;39;20364;-71
2024/01/02 00:20:29;;;;;;;;;;;8.80;99.90;;;;;;2614690;54;19947;-71
2024/01/02 00:22:59;;;;;;;;;;;8.80;99.90;;;;;;2616379;54;19968;-71
2024/01/02 00:25:29;;;;;;;;;;;8.80;99.90;;;;;;2615516;54;19947;-71
2024/01/02 00:27:59;;;;;;;;;;;8.80;99.90;;;;;;2616060;54;20427;-71
2024/01/02 00:30:34;;;;;;;;;;;8.80;99.90;;;;;;2616217;47;19946;-72
2024/01/02 00:33:04;;;;;;;;;;;8.80;99.90;;;;;;2617019;54;19946;-71
2024/01/02 00:35:35;;;;;;;;;;;8.80;99.90;;;;;;2616149;39;20337;-72
2024/01/02 00:38:05;;;;;;;;;;;8.80;99.90;;;;;;2616885;47;19938;-72
2024/01/02 00:40:35;;;;;;;;;;;8.80;99.90;;;;;;2615254;54;19946;-71
2024/01/02 00:43:04;;;;;;;;;;;8.80;99.90;;;;;;2616693;47;19947;-71
2024/01/02 00:45:37;;;;;;;;;;;8.80;99.90;;;;;;2615819;54;20062;-71
2024/01/02 00:48:08;;;;;;;;;;;8.80;99.90;;;;;;2617445;39;20329;-71
2024/01/02 00:50:38;;;;;;;;;;;8.80;99.90;;;;;;2615664;47;19959;-71
2024/01/02 00:53:07;;;;;;;;;;;8.80;99.90;;;;;;2620176;47;19984;-72
2024/01/02 00:55:37;;;;;;;;;;;8.80;99.90;;;;;;2618900;47;19946;-71
2024/01/02 00:58:07;;;;;;;;;;;8.80;99.90;;;;;;2616702;47;20013;-71
2024/01/02 01:00:39;;;;;;;;;;;8.80;99.90;;;;;;2615940;39;20328;-70
2024/01/02 01:03:09;;;;;;;;;;;8.80;99.90;;;;;;2616171;47;20429;-70
2024/01/02 01:05:39;;;;;;;;;;;8.80;99.90;;;;;;2616044;54;19972;-71
2024/01/02 01:08:09;;;;;;;;;;;8.80;99.90;;;;;;2615959;54;19939;-70
2024/01/02 01:10:38;;;;;;;;;;;8.80;99.90;;;;;;2616228;47;19954;-71
2024/01/02 01:13:08;;;;;;;;;;;8.80;99.90;;;;;;2616164;54;19953;-71
2024/01/02 01:15:41;;;;;;;;;;;8.70;99.90;;;;;;2615231;54;20560;-71
2024/01/02 01:18:10;;;;;;;;;;;8.80;99.90;;;;;;2619069;54;19996;-71
2024/01/02 01:20:40;;;;;;;;;;;8.70;99.90;;;;;;2617764;54;20014;-70
2024/01/02 01:23:10;;;;;;;;;;;8.70;99.90;;;;;;2615879;53;19950;-71
2024/01/02 01:25:39;;;;;;;;;;;8.70;99.90;;;;;;2615500;54;20475;-70
2024/01/02 01:28:09;;;;;;;;;;;8.70;99.90;;;;;;2616124;47;19947;-70
2024/01/02 01:30:42;;;;;;;;;;;8.70;99.90;;;;;;2615380;47;19946;-70
2024/01/02 01:33:11;;;;;;;;;;;8.70;99.90;;;;;;2617365;31;20444;-71
2024/01/02 01:35:41;;;;;;;;;;;8.70;99.90;;;;;;2616846;47;19973;-71
2024/01/02 01:38:11;;;;;;;;;;;8.70;99.90;;;;;;2617123;54;19994;-70
2024/01/02 01:40:40;;;;;;;;;;;8.70;99.90;;;;;;2620390;54;19946;-71
2024/01/02 01:43:12;;;;;;;;;;;8.70;99.90;;;;;;2622235;54;19946;-71
2024/01/02 01:45:44;;;;;;;;;;;8.70;99.90;;;;;;2622276;54;19939;-70
2024/01/02 01:48:14;;;;;;;;;;;8.60;99.90;;;;;;2619453;46;19969;-70
2024/01/02 01:50:44;;;;;;;;;;;8.60;99.90;;;;;;2616639;47;20027;-71
2024/01/02 01:53:13;;;;;;;;;;;8.50;99.90;;;;;;2616087;54;19947;-71
2024/01/02 01:55:43;;;;;;;;;;;8.60;99.90;;;;;;2614049;54;19947;-70
2024/01/02 01:58:13;;;;;;;;;;;8.50;99.90;;;;;;2616672;54;19966;-70
2024/01/02 02:00:45;;;;;;;;;;;8.50;99.90;;;;;;2615830;54;19938;-70
2024/01/02 02:03:15;;;;;;;;;;;8.50;99.90;;;;;;2619798;47;19939;-70
2024/01/02 02:05:45;;;;;;;;;;;8.50;99.90;;;;;;2618774;47;20268;-71
2024/01/02 02:08:15;;;;;;;;;;;8.50;99.90;;;;;;2617497;54;20030;-70
2024/01/02 02:10:45;;;;;;;;;;;8.60;99.90;;;;;;2618911;39;20344;-71
2024/01/02 02:13:14;;;;;;;;;;;8.50;99.90;;;;;;2617326;54;19947;-72
2024/01/02 02:15:48;;;;;;;;;;;8.50;99.90;;;;;;2616057;54;19972;-71
2024/01/02 02:18:18;;;;;;;;;;;8.40;99.90;;;;;;2617170;47;19951;-71
2024/01/02 02:20:49;;;;;;;;;;;8.30;99.90;;;;;;2616670;47;19951;-71
2024/01/02 02:23:22;;;;;;;;;;;8.40;99.90;;;;;;2617072;46;20009;-71
2024/01/02 02:25:51;;;;;;;;;;;8.40;99.90;;;;;;2617746;54;19953;-71
2024/01/02 02:28:21;;;;;;;;;;;8.30;99.90;;;;;;2621167;47;20033;-71
2024/01/02 02:30:51;;;;;;;;;;;8.30;99.90;;;;;;2620739;47;20421;-71
2024/01/02 02:33:20;;;;;;;;;;;8.30;99.90;;;;;;2621400;47;19939;-71
2024/01/02 02:35:50;;;;;;;;;;;8.30;99.90;;;;;;2618503;54;19947;-71
2024/01/02 02:38:22;;;;;;;;;;;8.30;99.90;;;;;;2617331;54;19946;-71
2024/01/02 02:40:52;;;;;;;;;;;8.20;99.90;;;;;;2616494;54;20037;-71
2024/01/02 02:43:22;;;;;;;;;;;8.20;99.90;;;;;;2616978;54;20019;-71
2024/01/02 02:45:51;;;;;;;;;;;8.20;99.90;;;;;;2616831;47;19939;-71
2024/01/02 02:48:21;;;;;;;;;;;8.20;99.90;;;;;;2616798;54;19946;-72
2024/01/02 02:50:51;;;;;;;;;;;8.20;99.90;;;;;;2617699;39;20356;-70
2024/01/02 02:53:23;;;;;;;;;;;8.20;99.90;;;;;;2616640;47;19945;-70
2024/01/02 02:55:53;;;;;;;;;;;8.20;99.90;;;;;;2617541;54;19938;-70
2024/01/02 02:58:22;;;;;;;;;;;8.30;99.90;;;;;;2619367;47;19939;-70
2024/01/02 03:00:52;;;;;;;;;;;8.20;99.90;;;;;;2621320;47;19954;-70
2024/01/02 03:03:22;;;;;;;;;;;8.20;99.90;;;;;;2616996;54;19996;-70
2024/01/02 03:05:51;;;;;;;;;;;8.20;99.90;;;;;;2616750;54;19946;-70
2024/01/02 03:08:24;;;;;;;;;;;8.20;99.90;;;;;;2616905;54;19946;-70
2024/01/02 03:10:58;;;;;;;;;;;8.20;99.90;;;;;;2620055;39;20363;-71
2024/01/02 03:13:29;;;;;;;;;;;8.20;99.90;;;;;;2624124;47;20480;-70
2024/01/02 03:15:58;;;;;;;;;;;8.20;99.90;;;;;;2622949;54;19950;-70
2024/01/02 03:18:28;;;;;;;;;;;8.20;99.90;;;;;;2624119;39;20364;-70
2024/01/02 03:20:58;;;;;;;;;;;8.20;99.90;;;;;;2623728;54;19943;-69
2024/01/02 03:23:30;;;;;;;;;;;8.30;99.90;;;;;;2624065;47;19946;-70
2024/01/02 03:26:00;;;;;;;;;;;8.30;99.90;;;;;;2623065;54;20042;-70
2024/01/02 03:28:30;;;;;;;;;;;8.30;99.90;;;;;;2623648;51;19946;-71
2024/01/02 03:31:01;;;;;;;;;;;8.20;99.90;;;;;;2622921;54;19950;-71
2024/01/02 03:33:30;;;;;;;;;;;8.30;99.90;;;;;;2622159;48;19953;-71
2024/01/02 03:35:57;;;;;;;;;;;8.30;99.90;;;;;;2621135;47;19958;-71
2024/01/02 03:38:27;;;;;;;;;;;8.30;99.90;;;;;;2621212;54;20084;-71
2024/01/02 03:41:01;;;;;;;;;;;8.20;99.90;;;;;;2618617;54;19946;-71
2024/01/02 03:43:30;;;;;;;;;;;8.20;99.90;;;;;;2616013;47;20048;-71
2024/01/02 03:46:00;;;;;;;;;;;8.30;99.90;;;;;;2616309;47;19969;-71
2024/01/02 03:48:30;;;;;;;;;;;8.30;99.90;;;;;;2616123;54;19946;-71
2024/01/02 03:51:00;;;;;;;;;;;8.20;99.90;;;;;;2615311;47;20453;-71
2024/01/02 03:53:30;;;;;;;;;;;8.30;99.90;;;;;;2616506;47;19938;-71
2024/01/02 03:56:03;;;;;;;;;;;8.30;99.90;;;;;;2614916;47;19950;-71
2024/01/02 03:58:32;;;;;;;;;;;8.30;99.90;;;;;;2616763;54;19939;-71
2024/01/02 04:01:03;;;;;;;;;;;8.30;99.90;;;;;;2615831;39;20426;-71
2024/01/02 04:03:32;;;;;;;;;;;8.40;99.90;;;;;;2616332;54;19974;-71
2024/01/02 04:06:02;;;;;;;;;;;8.30;99.90;;;;;;2616706;54;19946;-70
2024/01/02 04:08:32;;;;;;;;;;;8.30;99.90;;;;;;2616776;47;20502;-72
2024/01/02 04:11:04;;;;;;;;;;;8.30;99.90;;;;;;2615817;49;19992;-70
2024/01/02 04:13:34;;;;;;;;;;;8.20;99.90;;;;;;2617134;54;19953;-70
2024/01/02 04:16:04;;;;;;;;;;;8.20;99.90;;;;;;2616614;47;19938;-70
2024/01/02 04:18:34;;;;;;;;;;;8.20;99.90;;;;;;2616983;54;19953;-71
2024/01/02 04:21:04;;;;;;;;;;;8.20;99.90;;;;;;2616962;50;19946;-71
2024/01/02 04:23:34;;;;;;;;;;;8.10;99.90;;;;;;2616170;47;19954;-71
2024/01/02 04:26:06;;;;;;;;;;;8.10;99.90;;;;;;2616829;54;20464;-70
2024/01/02 04:28:35;;;;;;;;;;;8.10;99.90;;;;;;2621912;54;19972;-70
2024/01/02 04:31:06;;;;;;;;;;;8.10;99.90;;;;;;2621938;54;19938;-70
2024/01/02 04:33:36;;;;;;;;;;;8.10;99.90;;;;;;2622769;54;19946;-70
2024/01/02 04:36:07;;;;;;;;;;;8.10;99.90;;;;;;2622122;54;20456;-70
2024/01/02 04:38:36;;;;;;;;;;;8.10;99.90;;;;;;2622748;47;19953;-70
2024/01/02 04:41:09;;;;;;;;;;;8.10;99.90;;;;;;2622920;47;20350;-70
2024/01/02 04:43:38;;;;;;;;;;;8.10;99.90;;;;;;2622616;54;19957;-70
2024/01/02 04:46:08;;;;;;;;;;;7.50;99.90;;;;;;2619499;47;20433;-70
2024/01/02 04:48:38;;;;;;;;;;;8.10;99.90;;;;;;2617225;47;19946;-70
2024/01/02 04:51:07;;;;;;;;;;;8.10;99.90;;;;;;2617554;47;19969;-70
2024/01/02 04:53:34;;;;;;;;;;;8.10;99.90;;;;;;2616870;54;19950;-70
2024/01/02 04:56:04;;;;;;;;;;;8.10;99.90;;;;;;2615533;47;19946;-70
2024/01/02 04:58:36;;;;;;;;;;;8.10;99.90;;;;;;2616971;54;19951;-70
2024/01/02 05:01:06;;;;;;;;;;;8.10;99.90;;;;;;2616758;54;19947;-71
2024/01/02 05:03:36;;;;;;;;;;;8.10;99.90;;;;;;2616654;54;19953;-70
2024/01/02 05:06:06;;;;;;;;;;;8.10;99.90;;;;;;2620182;47;19943;-71
2024/01/02 05:08:36;;;;;;;;;;;8.10;99.90;;;;;;2618688;54;19945;-70
2024/01/02 05:11:06;;;;;;;;;;;8.10;99.90;;;;;;2616438;47;19977;-70
2024/01/02 05:13:38;;;;;;;;;;;8.20;99.90;;;;;;2616793;39;20135;-71
2024/01/02 05:16:09;;;;;;;;;;;8.10;99.90;;;;;;2616273;47;19939;-71
2024/01/02 05:18:39;;;;;;;;;;;8.00;99.90;;;;;;2616033;47;19946;-71
2024/01/02 05:21:09;;;;;;;;;;;8.00;99.90;;;;;;2616914;54;20025;-70
2024/01/02 05:23:38;;;;;;;;;;;8.00;99.90;;;;;;2616443;47;20444;-70
2024/01/02 05:26:08;;;;;;;;;;;8.10;99.90;;;;;;2616551;39;20392;-70
2024/01/02 05:28:40;;;;;;;;;;;8.10;99.90;;;;;;2616499;54;20041;-71
2024/01/02 05:31:10;;;;;;;;;;;8.10;99.90;;;;;;2616755;47;19946;-71
2024/01/02 05:33:40;;;;;;;;;;;8.10;99.90;;;;;;2617966;54;19958;-71
2024/01/02 05:36:14;;;;;;;;;;;8.10;99.90;;;;;;2616994;54;19953;-71
2024/01/02 05:38:44;;;;;;;;;;;8.10;99.90;;;;;;2617700;54;19976;-71
2024/01/02 05:41:13;;;;;;;;;;;8.10;99.90;;;;;;2616995;47;19939;-71
2024/01/02 05:43:46;;;;;;;;;;;8.20;99.90;;;;;;2617422;47;19984;-71
2024/01/02 05:46:15;;;;;;;;;;;8.20;99.90;;;;;;2619140;54;20012;-70
2024/01/02 05:48:45;;;;;;;;;;;8.20;99.90;;;;;;2622243;54;19996;-71
2024/01/02 05:51:15;;;;;;;;;;;8.20;99.90;;;;;;2622233;47;19946;-70
2024/01/02 05:53:44;;;;;;;;;;;8.20;99.90;;;;;;2623614;47;20005;-70
2024/01/02 05:56:15;;;;;;;;;;;8.10;99.90;;;;;;2619846;47;20042;-71
2024/01/02 05:58:48;;;;;;;;;;;8.20;99.90;;;;;;2617074;54;19947;-71
2024/01/02 06:01:18;;;;;;;;;;;8.20;99.90;;;;;;2616084;47;19984;-71
2024/01/02 06:03:48;;;;;;;;;;;8.30;99.90;;;;;;2616523;47;20077;-71
2024/01/02 06:06:17;;;;;;;;;;;8.20;99.90;;;;;;2614516;54;19946;-71
2024/01/02 06:08:47;;;;;;;;;;;8.30;99.90;;;;;;2617271;39;20324;-71
2024/01/02 06:11:17;;;;;;;;;;;8.30;99.90;;;;;;2616418;54;19954;-71
2024/01/02 06:13:49;;;;;;;;;;;8.40;99.90;;;;;;2617231;54;20486;-72
2024/01/02 06:16:20;;;;;;;;;;;8.40;99.90;;;;;;2616891;54;19954;-70
2024/01/02 06:18:49;;;;;;;;;;;8.50;99.90;;;;;;2617006;39;20330;-71
2024/01/02 06:21:19;;;;;;;;;;;8.50;99.90;;;;;;2617546;54;19946;-71
2024/01/02 06:23:49;;;;;;;;;;;8.50;99.90;;;;;;2617525;54;19947;-71
2024/01/02 06:26:25;;;;;;;;;;;8.70;99.90;;;;;;2617202;50;19938;-71
2024/01/02 06:28:57;;;;;;;;;;;8.60;99.90;;;;;;2616949;47;20050;-71
2024/01/02 06:31:27;;;;;;;;;;;8.60;99.90;;;;;;2616594;31;20447;-71
2024/01/02 06:33:56;;;;;;;;;;;8.70;99.90;;;;;;2616143;39;20334;-71
2024/01/02 06:36:26;;;;;;;;;;;8.70;99.90;;;;;;2617834;54;19962;-71
2024/01/02 06:38:56;;;;;;;;;;;8.70;99.90;;;;;;2618307;39;20329;-71
2024/01/02 06:41:25;;;;;;;;;;;8.80;99.90;;;;;;2617222;54;19938;-71
2024/01/02 06:43:58;;;;;;;;;;;8.80;99.90;;;;;;2617456;47;20042;-71
2024/01/02 06:46:27;;;;;;;;;;;8.80;99.90;;;;;;2617536;46;20489;-71
2024/01/02 06:48:57;;;;;;;;;;;8.80;99.90;;;;;;2617179;54;19947;-71
2024/01/02 06:51:29;;;;;;;;;;;8.90;99.90;;;;;;2617349;47;20058;-72
2024/01/02 06:53:58;;;;;;;;;;;8.90;99.90;;;;;;2616879;51;19953;-71
2024/01/02 06:56:28;;;;;;;;;;;8.90;99.90;;;;;;2617163;54;19953;-72
2024/01/02 06:59:00;;;;;;;;;;;8.90;99.90;;;;;;2619175;47;19950;-72
2024/01/02 07:01:30;;;;;;;;;;;8.90;99.90;;;;;;2619198;54;19965;-71
2024/01/02 07:04:00;;;;;;;;;;;8.80;99.90;;;;;;2619955;47;19945;-71
2024/01/02 07:06:29;;;;;;;;;;;8.90;99.90;;;;;;2619243;54;19954;-71
2024/01/02 07:08:59;;;;;;;;;;;8.90;99.90;;;;;;2616835;54;19950;-71
2024/01/02 07:11:28;;;;;;;;;;;8.90;99.90;;;;;;2617573;47;20449;-72
2024/01/02 07:14:01;;;;;;;;;;;8.90;99.90;;;;;;2619609;54;19954;-71
2024/01/02 07:16:32;;;;;;;;;;;9.00;99.90;;;;;;2615750;54;19947;-71
2024/01/02 07:19:01;;;;;;;;;;;9.00;99.90;;;;;;2617297;54;20456;-71
2024/01/02 07:21:31;;;;;;;;;;;9.00;99.90;;;;;;2616577;39;20472;-71
2024/01/02 07:24:01;;;;;;;;;;;9.00;99.90;;;;;;2616141;54;19951;-72
2024/01/02 07:26:30;;;;;;;;;;;9.00;99.90;;;;;;2618676;54;19953;-72
2024/01/02 07:29:03;;;;;;;;;;;9.00;99.90;;;;;;2621629;47;19958;-73
2024/01/02 07:31:34;;;;;;;;;;;9.10;99.90;;;;;;2619063;54;19946;-71
2024/01/02 07:34:04;;;;;;;;;;;9.10;99.90;;;;;;2613866;54;19938;-72
2024/01/02 07:36:34;;;;;;;;;;;9.10;99.90;;;;;;2618019;54;19946;-73
2024/01/02 07:39:04;;;;;;;;;;;9.10;99.90;;;;;;2620477;47;19939;-73
2024/01/02 07:41:34;;;;;;;;;;;9.10;99.90;;;;;;2619700;54;19947;-73
2024/01/02 07:44:07;;;;;;;;;;;9.10;99.90;;;;;;2618069;48;20466;-73
2024/01/02 07:46:36;;;;;;;;;;;9.10;99.90;;;;;;2619867;54;19938;-74
2024/01/02 07:49:06;;;;;;;;;;;9.10;99.90;;;;;;2618066;54;20029;-72
2024/01/02 07:51:36;;;;;;;;;;;9.10;99.90;;;;;;2618528;47;19946;-72
2024/01/02 07:54:06;;;;;;;;;;;9.10;99.90;;;;;;2617639;54;19946;-73
2024/01/02 07:56:35;;;;;;;;;;;9.10;99.90;;;;;;2617628;54;19950;-73
2024/01/02 07:59:07;;;;;;;;;;;9.20;99.90;;;;;;2617709;47;19950;-73
2024/01/02 08:01:37;;;;;;;;;;;9.20;99.90;;;;;;2618407;54;19939;-72
2024/01/02 08:04:07;;;;;;;;;;;9.20;99.90;;;;;;2617072;54;19993;-73
2024/01/02 08:06:37;;;;;;;;;;;9.20;99.90;;;;;;2620745;47;19938;-72
2024/01/02 08:09:07;;;;;;;;;;;9.20;99.90;;;;;;2620175;54;19958;-75
2024/01/02 08:11:37;;;;;;;;;;;9.20;99.90;;;;;;2619739;39;20365;-74
2024/01/02 08:14:09;;;;;;;;;;;9.20;99.90;;;;;;2619044;47;19946;-73
2024/01/02 08:16:39;;;;;;;;;;;9.30;99.90;;;;;;2618132;47;19951;-75
2024/01/02 08:19:09;;;;;;;;;;;9.30;99.90;;;;;;2618295;54;19938;-74
2024/01/02 08:21:39;;;;;;;;;;;9.30;99.90;;;;;;2618940;47;19939;-74
2024/01/02 08:24:08;;;;;;;;;;;9.30;99.90;;;;;;2618229;54;20159;-70
2024/01/02 08:26:38;;;;;;;;;;;9.40;99.90;;;;;;2617173;39;20361;-71
2024/01/02 08:29:10;;;;;;;;;;;9.40;99.90;;;;;;2616577;54;19946;-71
2024/01/02 08:31:40;;;;;;;;;;;9.40;99.90;;;;;;2617143;47;19950;-74
2024/01/02 08:34:10;;;;;;;;;;;9.50;99.90;;;;;;2617056;39;20415;-73
2024/01/02 08:36:40;;;;;;;;;;;9.50;99.90;;;;;;2617917;39;20356;-73
2024/01/02 08:39:09;;;;;;;;;;;9.60;99.90;;;;;;2616785;54;20045;-73
2024/01/02 08:41:39;;;;;;;;;;;9.60;99.90;;;;;;2617652;54;19953;-73
2024/01/02 08:44:11;;;;;;;;;;;9.60;99.90;;;;;;2616489;54;19953;-74
2024/01/02 08:46:41;;;;;;;;;;;9.70;99.90;;;;;;2617808;39;20167;-74
2024/01/02 08:49:12;;;;;;;;;;;9.70;99.90;;;;;;2616929;54;20060;-75
2024/01/02 08:51:42;;;;;;;;;;;9.80;99.90;;;;;;2617936;39;20348;-75
2024/01/02 08:54:12;;;;;;;;;;;9.80;99.90;;;;;;2615071;47;20046;-73
2024/01/02 08:56:42;;;;;;;;;;;9.80;99.90;;;;;;2618112;47;19954;-74
2024/01/02 08:59:14;;;;;;;;;;;9.80;99.90;;;;;;2617287;47;20007;-74
2024/01/02 09:01:44;;;;;;;;;;;9.80;99.90;;;;;;2617469;54;19946;-74
2024/01/02 09:04:14;;;;;;;;;;;9.80;99.90;;;;;;2618293;54;19943;-74
2024/01/02 09:06:43;;;;;;;;;;;9.80;99.90;;;;;;2605904;54;20030;-73
2024/01/02 09:09:13;;;;;;;;;;;9.80;99.90;;;;;;2606029;47;19946;-73
2024/01/02 09:11:44;;;;;;;;;;;9.60;99.90;;;;;;2608557;46;19963;-80
2024/01/02 09:14:16;;;;;;;;;;;9.70;99.90;;;;;;2628479;54;19964;-80
2024/01/02 09:16:48;;;;;;;;;;;9.80;99.90;;;;;;2628303;47;19945;-80
2024/01/02 09:19:19;;;;;;;;;;;9.80;99.90;;;;;;2628559;46;19942;-79
2024/01/02 09:21:49;;;;;;;;;;;9.80;99.90;;;;;;2627454;49;19949;-82
2024/01/02 09:24:20;;;;;;;;;;;9.80;99.90;;;;;;2626642;54;21028;-82
2024/01/02 09:26:54;;;;;;;;;;;9.90;99.90;;;;;;2628982;47;19943;-84
2024/01/02 09:29:27;;;;;;;;;;;9.90;99.90;;;;;;2626473;46;19949;-82
2024/01/02 09:31:57;;;;;;;;;;;9.80;99.90;;;;;;2625667;54;19988;-84
2024/01/02 09:34:27;;;;;;;;;;;9.80;99.90;;;;;;2625124;54;19943;-81
2024/01/02 09:36:57;;;;;;;;;;;9.80;99.90;;;;;;2629672;39;20464;-81
2024/01/02 09:39:27;;;;;;;;;;;9.80;99.90;;;;;;2628183;47;19967;-81
2024/01/02 09:42:02;;;;;;;;;;;9.80;99.90;;;;;;2627781;46;19981;-80
2024/01/02 09:44:42;;;;;;;;;;;9.90;99.90;;;;;;2630005;39;20520;-76
2024/01/02 09:47:19;;;;;;;;;;;9.90;99.90;;;;;;2626613;47;19923;-79
2024/01/02 09:49:55;;;;;;;;;;;9.80;99.90;;;;;;2628898;39;20428;-79
2024/01/02 09:52:34;;;;;;;;;;;9.90;99.90;;;;;;2628052;39;20409;-78
2024/01/02 09:55:08;;;;;;;;;;;9.90;99.90;;;;;;2621576;54;19950;-79
2024/01/02 09:57:42;;;;;;;;;;;9.90;99.90;;;;;;2629812;54;20522;-80
2024/01/02 10:00:20;;;;;;;;;;;10.00;99.90;;;;;;2630680;54;19957;-79
2024/01/02 10:02:57;;;;;;;;;;;9.90;99.90;;;;;;2630253;47;19957;-79
2024/01/02 10:05:37;;;;;;;;;;;10.00;99.90;;;;;;2629566;46;19977;-78
2024/01/02 10:08:15;;;;;;;;;;;10.00;99.90;;;;;;2630584;47;19949;-81
2024/01/02 10:10:51;;;;;;;;;;;10.00;99.90;;;;;;2630271;47;19942;-84
2024/01/02 10:13:24;;;;;;;;;;;9.90;99.90;;;;;;2618144;54;19946;-75
2024/01/02 10:15:58;;;;;;;;;;;10.00;99.90;;;;;;2615295;54;20487;-74
2024/01/02 10:18:35;;;;;;;;;;;10.00;99.90;;;;;;2616128;53;19938;-74
2024/01/02 10:21:09;;;;;;;;;;;10.00;99.90;;;;;;2618134;47;20061;-74
2024/01/02 10:23:43;;;;;;;;;;;10.00;99.90;;;;;;2618813;54;19953;-75
2024/01/02 10:26:15;;;;;;;;;;;9.90;99.90;;;;;;2620142;47;19943;-75
2024/01/02 10:28:46;;;;;;;;;;;10.00;99.90;;;;;;2617515;54;19938;-75
2024/01/02 10:31:25;;;;;;;;;;;10.00;99.90;;;;;;2617753;47;19951;-75
2024/01/02 10:34:00;;;;;;;;;;;10.10;99.90;;;;;;2616564;39;20356;-76
2024/01/02 10:36:31;;;;;;;;;;;10.10;99.90;;;;;;2615423;39;20229;-75
2024/01/02 10:39:04;;;;;;;;;;;10.10;99.90;;;;;;2617179;47;19951;-72
2024/01/02 10:41:43;;;;;;;;;;;10.10;99.90;;;;;;2617191;54;19939;-74
2024/01/02 10:44:15;;;;;;;;;;;10.20;99.90;;;;;;2616538;47;19953;-76
2024/01/02 10:46:49;;;;;;;;;;;10.20;99.90;;;;;;2618112;47;19947;-74
2024/01/02 10:49:24;;;;;;;;;;;10.20;99.90;;;;;;2622222;47;20461;-75
2024/01/02 10:51:59;;;;;;;;;;;10.20;99.90;;;;;;2622804;39;20090;-75
2024/01/02 10:54:35;;;;;;;;;;;10.20;99.90;;;;;;2619231;39;20446;-75
2024/01/02 10:57:08;;;;;;;;;;;10.20;99.90;;;;;;2617048;47;19946;-75
2024/01/02 10:59:45;;;;;;;;;;;10.20;99.90;;;;;;2615691;39;20352;-74
2024/01/02 11:02:21;;;;;;;;;;;11.70;99.90;;;;;;2616465;54;19954;-74
2024/01/02 11:04:58;;;;;;;;;;;10.20;99.90;;;;;;2617557;47;20029;-74
2024/01/02 11:07:30;;;;;;;;;;;10.30;99.90;;;;;;2618535;54;20060;-75
2024/01/02 11:10:04;;;;;;;;;;;10.30;99.90;;;;;;2614113;54;20938;-75
2024/01/02 11:12:38;;;;;;;;;;;10.20;99.90;;;;;;2618403;46;19939;-75
2024/01/02 11:15:11;;;;;;;;;;;10.30;99.90;;;;;;2617356;39;20385;-74
2024/01/02 11:17:45;;;;;;;;;;;10.30;99.90;;;;;;2620050;54;19947;-74
2024/01/02 11:20:18;;;;;;;;;;;10.20;99.90;;;;;;2617696;47;19939;-75
2024/01/02 11:22:56;;;;;;;;;;;10.20;99.90;;;;;;2615486;54;19965;-76
2024/01/02 11:25:27;;;;;;;;;;;10.20;99.90;;;;;;2615600;47;19945;-74
2024/01/02 11:28:12;;;;;;;;;;;10.30;99.90;;;;;;2617040;47;19939;-75
2024/01/02 11:30:48;;;;;;;;;;;10.30;99.90;;;;;;2621954;39;20408;-76
2024/01/02 11:33:24;;;;;;;;;;;10.30;99.90;;;;;;2620917;47;19947;-76
2024/01/02 11:36:07;;;;;;;;;;;10.20;99.90;;;;;;2621975;47;20061;-76
2024/01/02 11:38:42;;;;;;;;;;;10.30;99.90;;;;;;2622840;47;19947;-75
2024/01/02 11:41:16;;;;;;;;;;;10.50;99.90;;;;;;2622868;39;20353;-76
2024/01/02 11:43:50;;;;;;;;;;;10.40;99.90;;;;;;2621340;47;19946;-76
2024/01/02 15:55:21;;;;;;;;;;;10.30;99.90;;;;;;2603700;39;20322;-70
2024/01/02 15:57:55;;;;;;;;;;;10.80;99.90;;;;;;2608500;54;19946;-70
2024/01/02 16:00:25;;;;;;;;;;;10.00;99.90;;;;;;2608634;39;20672;-69
2024/01/02 16:03:16;;;;;;;;;;;10.00;99.90;;;;;;2609394;54;20061;-69
2024/01/02 16:05:59;;;;;;;;;;;10.00;99.90;;;;;;2607971;46;19953;-70
2024/01/02 16:08:33;;;;;;;;;;;10.00;99.90;;;;;;2607033;54;19946;-70
2024/01/02 16:11:12;;;;;;;;;;;10.00;99.90;;;;;;2608353;54;19978;-71
2024/01/02 16:14:12;;;;;;;;;;;10.00;99.90;;;;;;2608668;47;19953;-72
2024/01/02 16:17:09;;;;;;;;;;;10.00;99.90;;;;;;2605533;54;19950;-71
2024/01/02 16:19:56;;;;;;;;;;;10.00;99.90;;;;;;2607444;54;19947;-73
2024/01/02 16:22:37;;;;;;;;;;;10.00;99.90;;;;;;2607866;54;20038;-70
2024/01/02 16:25:21;;;;;;;;;;;10.00;99.90;;;;;;2608468;47;20017;-73
2024/01/02 16:28:11;;;;;;;;;;;10.00;99.90;;;;;;2608295;54;19958;-72
2024/01/02 16:31:00;;;;;;;;;;;10.60;99.90;;;;;;2606504;47;19953;-71
2024/01/02 16:33:36;;;;;;;;;;;10.00;99.90;;;;;;2610291;31;20412;-71
2024/01/02 16:36:12;;;;;;;;;;;10.00;99.90;;;;;;2607173;54;19950;-71
2024/01/02 16:38:57;;;;;;;;;;;10.10;99.90;;;;;;2609164;54;19950;-71
2024/01/02 16:41:32;;;;;;;;;;;10.00;99.90;;;;;;2607069;47;20007;-71
2024/01/02 16:44:05;;;;;;;;;;;10.00;99.90;;;;;;2608814;54;19947;-71
2024/01/02 16:54:44;;;;;;;;;;;10.00;99.90;;;;;;2573529;54;20878;-79
2024/01/02 16:57:15;;;;;;;;;;;10.00;99.90;;;;;;2621005;47;19957;-79
2024/01/02 16:59:47;;;;;;;;;;;10.00;99.90;;;;;;2621952;47;20200;-77
2024/01/02 17:02:18;;;;;;;;;;;10.00;99.90;;;;;;2621477;47;19954;-79
2024/01/02 17:04:49;;;;;;;;;;;10.00;99.90;;;;;;2620673;54;19950;-78
2024/01/02 17:07:20;;;;;;;;;;;10.00;99.90;;;;;;2619576;54;19947;-77
2024/01/02 17:09:50;;;;;;;;;;;10.00;99.90;;;;;;2617524;47;20491;-76
2024/01/02 17:12:21;;;;;;;;;;;10.00;99.90;;;;;;2617702;39;20352;-77
2024/01/02 17:14:56;;;;;;;;;;;10.00;99.90;;;;;;2622059;54;19957;-77
2024/01/02 17:17:27;;;;;;;;;;;10.70;99.90;;;;;;2618684;54;19946;-77
2024/01/02 17:19:57;;;;;;;;;;;10.00;99.90;;;;;;2617937;47;19991;-77
2024/01/02 17:22:28;;;;;;;;;;;9.90;99.90;;;;;;2616369;54;19955;-77
2024/01/02 17:24:58;;;;;;;;;;;10.00;99.90;;;;;;2618503;54;19947;-78
2024/01/02 17:27:28;;;;;;;;;;;10.00;99.90;;;;;;2620225;46;19993;-78
2024/01/02 17:30:01;;;;;;;;;;;10.00;99.90;;;;;;2619082;54;19946;-77
2024/01/02 17:32:31;;;;;;;;;;;10.00;99.90;;;;;;2619762;54;19989;-77
2024/01/02 17:35:05;;;;;;;;;;;10.00;99.90;;;;;;2618194;47;20082;-77
2024/01/02 17:37:36;;;;;;;;;;;10.00;99.90;;;;;;2618420;47;19953;-76
2024/01/02 17:40:07;;;;;;;;;;;10.00;99.90;;;;;;2618167;54;19950;-77
2024/01/02 17:42:38;;;;;;;;;;;10.00;99.90;;;;;;2621362;47;19977;-76
2024/01/02 17:45:24;;;;;;;;;;;10.10;99.90;;;;;;2620678;47;20045;-81
2024/01/02 17:48:07;;;;;;;;;;;10.00;99.90;;;;;;2625757;54;20006;-80
2024/01/02 17:50:39;;;;;;;;;;;10.00;99.90;;;;;;2630121;54;19931;-82
2024/01/02 17:53:11;;;;;;;;;;;9.90;99.90;;;;;;2631152;54;19927;-80
2024/01/02 17:55:44;;;;;;;;;;;10.00;99.90;;;;;;2630105;47;19931;-83
2024/01/02 17:58:21;;;;;;;;;;;10.00;99.90;;;;;;2629681;54;19962;-83
2024/01/02 18:00:59;;;;;;;;;;;10.10;99.90;;;;;;2626962;46;19942;-81
2024/01/02 18:03:41;;;;;;;;;;;10.00;99.90;;;;;;2624896;54;19969;-82
2024/01/02 18:06:13;;;;;;;;;;;10.00;99.90;;;;;;2626559;47;19943;-81
2024/01/02 18:08:52;;;;;;;;;;;10.00;99.90;;;;;;2626552;54;19950;-81
2024/01/02 18:11:29;;;;;;;;;;;10.00;99.90;;;;;;2619778;47;21113;-73
2024/01/02 18:14:07;;;;;;;;;;;10.00;99.90;;;;;;2607988;47;19954;-74
2024/01/02 18:16:47;;;;;;;;;;;10.10;99.90;;;;;;2608964;47;19947;-73
2024/01/02 18:19:24;;;;;;;;;;;10.00;99.90;;;;;;2618643;39;20483;-72
2024/01/02 18:21:58;;;;;;;;;;;10.00;99.90;;;;;;2617643;47;20465;-72
2024/01/02 18:24:37;;;;;;;;;;;10.10;99.90;;;;;;2618338;54;19946;-73
2024/01/02 18:27:15;;;;;;;;;;;10.10;99.90;;;;;;2618710;54;19947;-73
2024/01/02 18:29:55;;;;;;;;;;;10.10;99.90;;;;;;2618666;54;19946;-73
2024/01/02 18:32:33;;;;;;;;;;;10.10;99.90;;;;;;2618947;47;19946;-72
2024/01/02 18:35:05;;;;;;;;;;;10.20;99.90;;;;;;2619022;39;20333;-73
2024/01/02 18:37:38;;;;;;;;;;;10.10;99.90;;;;;;2619351;54;20033;-73
2024/01/02 18:40:10;;;;;;;;;;;10.10;99.90;;;;;;2619341;54;19945;-73
2024/01/02 18:42:43;;;;;;;;;;;10.10;99.90;;;;;;2619956;50;19947;-73
2024/01/02 18:45:15;;;;;;;;;;;10.10;99.90;;;;;;2618468;54;19946;-72
2024/01/02 18:47:53;;;;;;;;;;;10.10;99.90;;;;;;2619820;54;19948;-72
2024/01/02 18:50:24;;;;;;;;;;;10.10;99.90;;;;;;2619788;54;19946;-72
2024/01/02 18:53:02;;;;;;;;;;;10.10;99.90;;;;;;2619457;54;19946;-72
2024/01/02 18:55:33;;;;;;;;;;;10.10;99.90;;;;;;2618647;54;19946;-72
2024/01/02 18:58:02;;;;;;;;;;;10.20;99.90;;;;;;2618551;47;19954;-72
2024/01/02 19:00:32;;;;;;;;;;;10.10;99.90;;;;;;2619534;54;19946;-71
2024/01/02 19:03:04;;;;;;;;;;;10.10;99.90;;;;;;2620109;39;20482;-72
2024/01/02 19:05:41;;;;;;;;;;;10.20;99.90;;;;;;2619716;54;19947;-71
2024/01/02 19:08:12;;;;;;;;;;;10.20;99.90;;;;;;2619152;54;19953;-72
2024/01/02 19:10:43;;;;;;;;;;;10.20;99.90;;;;;;2618875;50;19946;-72